sensor_id;sensor_type;location;lat;lon;timestamp;temperature;humidity
37910;DHT22;23741;49.446;8.754;2023-05-07T00:00:23;19.20;56.50
37910;DHT22;23741;49.446;8.754;2023-05-07T00:02:25;19.10;56.60
37910;DHT22;23741;49.446;8.754;2023-05-07T00:04:27;19.20;56.70
37910;DHT22;23741;49.446;8.754;2023-05-07T00:06:29;19.10;56.40
37910;DHT22;23741;49.446;8.754;2023-05-07T00:08:32;19.20;56.50
37910;DHT22;23741;49.446;8.754;2023-05-07T00:10:33;19.20;56.50
37910;DHT22;23741;49.446;8.754;2023-05-07T00:12:35;19.20;56.60
37910;DHT22;23741;49.446;8.754;2023-05-07T00:14:37;19.10;56.50
37910;DHT22;23741;49.446;8.754;2023-05-07T00:16:39;19.10;56.70
37910;DHT22;23741;49.446;8.754;2023-05-07T00:18:40;19.10;56.70
37910;DHT22;23741;49.446;8.754;2023-05-07T00:20:42;19.10;56.80
37910;DHT22;23741;49.446;8.754;2023-05-07T00:22:44;19.10;56.90
37910;DHT22;23741;49.446;8.754;2023-05-07T00:24:46;19.10;56.70
37910;DHT22;23741;49.446;8.754;2023-05-07T00:26:48;19.00;56.80
37910;DHT22;23741;49.446;8.754;2023-05-07T00:28:49;19.10;56.80
37910;DHT22;23741;49.446;8.754;2023-05-07T00:30:51;19.00;56.80
37910;DHT22;23741;49.446;8.754;2023-05-07T00:32:53;19.00;56.80
37910;DHT22;23741;49.446;8.754;2023-05-07T00:34:54;19.00;56.80
37910;DHT22;23741;49.446;8.754;2023-05-07T00:36:57;19.10;56.80
37910;DHT22;23741;49.446;8.754;2023-05-07T00:38:59;19.10;56.90
37910;DHT22;23741;49.446;8.754;2023-05-07T00:41:01;19.10;56.90
37910;DHT22;23741;49.446;8.754;2023-05-07T00:43:03;19.10;57.00
37910;DHT22;23741;49.446;8.754;2023-05-07T00:45:05;19.00;56.90
37910;DHT22;23741;49.446;8.754;2023-05-07T00:47:07;19.00;56.80
37910;DHT22;23741;49.446;8.754;2023-05-07T00:49:09;19.10;56.80
37910;DHT22;23741;49.446;8.754;2023-05-07T00:51:11;19.00;56.80
37910;DHT22;23741;49.446;8.754;2023-05-07T00:53:13;19.00;56.90
37910;DHT22;23741;49.446;8.754;2023-05-07T00:55:15;19.00;57.10
37910;DHT22;23741;49.446;8.754;2023-05-07T00:57:17;18.90;56.80
37910;DHT22;23741;49.446;8.754;2023-05-07T00:59:18;19.00;56.80
37910;DHT22;23741;49.446;8.754;2023-05-07T01:01:20;19.00;57.00
37910;DHT22;23741;49.446;8.754;2023-05-07T01:03:22;18.90;57.00
37910;DHT22;23741;49.446;8.754;2023-05-07T01:05:24;18.90;57.00
37910;DHT22;23741;49.446;8.754;2023-05-07T01:07:28;18.90;57.00
37910;DHT22;23741;49.446;8.754;2023-05-07T01:09:29;19.00;57.10
37910;DHT22;23741;49.446;8.754;2023-05-07T01:11:31;19.00;57.00
37910;DHT22;23741;49.446;8.754;2023-05-07T01:13:33;18.90;57.00
37910;DHT22;23741;49.446;8.754;2023-05-07T01:15:36;19.00;57.10
37910;DHT22;23741;49.446;8.754;2023-05-07T01:17:39;18.90;57.30
37910;DHT22;23741;49.446;8.754;2023-05-07T01:19:46;18.80;57.10
37910;DHT22;23741;49.446;8.754;2023-05-07T01:21:49;18.80;57.10
37910;DHT22;23741;49.446;8.754;2023-05-07T01:23:54;18.80;57.20
37910;DHT22;23741;49.446;8.754;2023-05-07T01:25:56;18.80;57.20
37910;DHT22;23741;49.446;8.754;2023-05-07T01:28:00;18.80;57.10
37910;DHT22;23741;49.446;8.754;2023-05-07T01:30:06;18.80;57.20
37910;DHT22;23741;49.446;8.754;2023-05-07T01:32:08;18.80;57.20
37910;DHT22;23741;49.446;8.754;2023-05-07T01:34:10;18.70;57.10
37910;DHT22;23741;49.446;8.754;2023-05-07T01:36:13;18.70;57.30
37910;DHT22;23741;49.446;8.754;2023-05-07T01:38:15;18.70;57.20
37910;DHT22;23741;49.446;8.754;2023-05-07T01:40:17;18.80;57.10
37910;DHT22;23741;49.446;8.754;2023-05-07T01:42:19;18.80;57.20
37910;DHT22;23741;49.446;8.754;2023-05-07T01:44:21;18.70;57.30
37910;DHT22;23741;49.446;8.754;2023-05-07T01:46:23;18.70;57.30
37910;DHT22;23741;49.446;8.754;2023-05-07T01:48:26;18.60;57.20
37910;DHT22;23741;49.446;8.754;2023-05-07T01:50:28;18.60;57.30
37910;DHT22;23741;49.446;8.754;2023-05-07T01:52:31;18.60;57.30
37910;DHT22;23741;49.446;8.754;2023-05-07T01:54:33;18.60;57.50
37910;DHT22;23741;49.446;8.754;2023-05-07T01:56:34;18.60;57.40
37910;DHT22;23741;49.446;8.754;2023-05-07T01:58:37;18.60;57.40
37910;DHT22;23741;49.446;8.754;2023-05-07T02:00:39;18.50;57.20
37910;DHT22;23741;49.446;8.754;2023-05-07T02:02:42;18.50;57.20
37910;DHT22;23741;49.446;8.754;2023-05-07T02:04:54;18.50;57.30
37910;DHT22;23741;49.446;8.754;2023-05-07T02:06:56;18.50;57.40
37910;DHT22;23741;49.446;8.754;2023-05-07T02:08:58;18.50;57.40
37910;DHT22;23741;49.446;8.754;2023-05-07T02:11:00;18.40;57.30
37910;DHT22;23741;49.446;8.754;2023-05-07T02:13:02;18.50;57.30
37910;DHT22;23741;49.446;8.754;2023-05-07T02:15:04;18.40;57.40
37910;DHT22;23741;49.446;8.754;2023-05-07T02:17:06;18.40;57.20
37910;DHT22;23741;49.446;8.754;2023-05-07T02:19:07;18.40;57.30
37910;DHT22;23741;49.446;8.754;2023-05-07T02:21:10;18.50;57.40
37910;DHT22;23741;49.446;8.754;2023-05-07T02:23:11;18.40;57.50
37910;DHT22;23741;49.446;8.754;2023-05-07T02:25:13;18.40;57.40
37910;DHT22;23741;49.446;8.754;2023-05-07T02:27:15;18.40;57.40
37910;DHT22;23741;49.446;8.754;2023-05-07T02:29:18;18.40;57.70
37910;DHT22;23741;49.446;8.754;2023-05-07T02:31:20;18.30;57.50
37910;DHT22;23741;49.446;8.754;2023-05-07T02:33:21;18.40;57.50
37910;DHT22;23741;49.446;8.754;2023-05-07T02:35:26;18.30;57.30
37910;DHT22;23741;49.446;8.754;2023-05-07T02:37:28;18.30;57.50
37910;DHT22;23741;49.446;8.754;2023-05-07T02:39:31;18.40;57.50
37910;DHT22;23741;49.446;8.754;2023-05-07T02:41:32;18.30;57.50
37910;DHT22;23741;49.446;8.754;2023-05-07T02:43:34;18.30;57.50
37910;DHT22;23741;49.446;8.754;2023-05-07T02:45:36;18.30;57.40
37910;DHT22;23741;49.446;8.754;2023-05-07T02:47:40;18.30;57.60
37910;DHT22;23741;49.446;8.754;2023-05-07T02:49:42;18.30;57.60
37910;DHT22;23741;49.446;8.754;2023-05-07T02:51:44;18.30;57.60
37910;DHT22;23741;49.446;8.754;2023-05-07T02:53:52;18.30;57.60
37910;DHT22;23741;49.446;8.754;2023-05-07T02:55:57;18.30;57.60
37910;DHT22;23741;49.446;8.754;2023-05-07T02:57:59;18.20;57.50
37910;DHT22;23741;49.446;8.754;2023-05-07T03:00:09;18.20;57.60
37910;DHT22;23741;49.446;8.754;2023-05-07T03:02:14;18.20;57.70
37910;DHT22;23741;49.446;8.754;2023-05-07T03:04:17;18.20;57.60
37910;DHT22;23741;49.446;8.754;2023-05-07T03:06:18;18.20;57.60
37910;DHT22;23741;49.446;8.754;2023-05-07T03:08:20;18.20;57.70
37910;DHT22;23741;49.446;8.754;2023-05-07T03:10:22;18.20;57.70
37910;DHT22;23741;49.446;8.754;2023-05-07T03:12:23;18.20;57.80
37910;DHT22;23741;49.446;8.754;2023-05-07T03:14:25;18.20;57.80
37910;DHT22;23741;49.446;8.754;2023-05-07T03:16:27;18.10;57.80
37910;DHT22;23741;49.446;8.754;2023-05-07T03:18:29;18.20;57.90
37910;DHT22;23741;49.446;8.754;2023-05-07T03:20:31;18.20;58.00
37910;DHT22;23741;49.446;8.754;2023-05-07T03:22:33;18.20;58.40
37910;DHT22;23741;49.446;8.754;2023-05-07T03:24:36;18.20;57.80
37910;DHT22;23741;49.446;8.754;2023-05-07T03:26:37;18.20;57.80
37910;DHT22;23741;49.446;8.754;2023-05-07T03:28:39;18.20;57.90
37910;DHT22;23741;49.446;8.754;2023-05-07T03:30:45;18.20;57.90
37910;DHT22;23741;49.446;8.754;2023-05-07T03:32:47;18.20;58.00
37910;DHT22;23741;49.446;8.754;2023-05-07T03:34:48;18.20;58.10
37910;DHT22;23741;49.446;8.754;2023-05-07T03:36:50;18.20;58.00
37910;DHT22;23741;49.446;8.754;2023-05-07T03:38:53;18.10;57.90
37910;DHT22;23741;49.446;8.754;2023-05-07T03:40:59;18.10;57.90
37910;DHT22;23741;49.446;8.754;2023-05-07T03:43:01;18.10;58.00
37910;DHT22;23741;49.446;8.754;2023-05-07T03:45:05;18.10;58.00
37910;DHT22;23741;49.446;8.754;2023-05-07T03:47:08;18.10;58.00
37910;DHT22;23741;49.446;8.754;2023-05-07T03:49:09;18.10;58.00
37910;DHT22;23741;49.446;8.754;2023-05-07T03:51:11;18.10;58.10
37910;DHT22;23741;49.446;8.754;2023-05-07T03:53:13;18.10;58.10
37910;DHT22;23741;49.446;8.754;2023-05-07T03:55:14;18.10;58.10
37910;DHT22;23741;49.446;8.754;2023-05-07T03:57:22;18.10;58.20
37910;DHT22;23741;49.446;8.754;2023-05-07T03:59:24;18.10;58.20
37910;DHT22;23741;49.446;8.754;2023-05-07T04:01:26;18.10;58.20
37910;DHT22;23741;49.446;8.754;2023-05-07T04:03:28;18.10;58.20
37910;DHT22;23741;49.446;8.754;2023-05-07T04:05:32;18.10;58.20
37910;DHT22;23741;49.446;8.754;2023-05-07T04:07:36;18.10;58.30
37910;DHT22;23741;49.446;8.754;2023-05-07T04:09:38;18.10;58.20
37910;DHT22;23741;49.446;8.754;2023-05-07T04:11:40;18.00;58.10
37910;DHT22;23741;49.446;8.754;2023-05-07T04:13:44;18.00;58.10
37910;DHT22;23741;49.446;8.754;2023-05-07T04:15:45;18.00;58.10
37910;DHT22;23741;49.446;8.754;2023-05-07T04:17:50;18.00;58.00
37910;DHT22;23741;49.446;8.754;2023-05-07T04:19:54;18.00;58.00
37910;DHT22;23741;49.446;8.754;2023-05-07T04:21:56;18.00;58.00
37910;DHT22;23741;49.446;8.754;2023-05-07T04:23:58;18.10;58.30
37910;DHT22;23741;49.446;8.754;2023-05-07T04:25:59;18.00;58.20
37910;DHT22;23741;49.446;8.754;2023-05-07T04:28:13;18.00;58.30
37910;DHT22;23741;49.446;8.754;2023-05-07T04:30:16;18.00;58.30
37910;DHT22;23741;49.446;8.754;2023-05-07T04:32:17;18.00;58.40
37910;DHT22;23741;49.446;8.754;2023-05-07T04:34:20;18.00;58.40
37910;DHT22;23741;49.446;8.754;2023-05-07T04:36:22;18.10;58.40
37910;DHT22;23741;49.446;8.754;2023-05-07T04:38:31;18.00;58.60
37910;DHT22;23741;49.446;8.754;2023-05-07T04:40:35;18.00;58.30
37910;DHT22;23741;49.446;8.754;2023-05-07T04:42:37;18.00;58.50
37910;DHT22;23741;49.446;8.754;2023-05-07T04:44:39;18.00;58.40
37910;DHT22;23741;49.446;8.754;2023-05-07T04:46:41;18.00;58.50
37910;DHT22;23741;49.446;8.754;2023-05-07T04:48:42;18.00;58.50
37910;DHT22;23741;49.446;8.754;2023-05-07T04:50:48;18.00;58.50
37910;DHT22;23741;49.446;8.754;2023-05-07T04:52:51;18.00;58.70
37910;DHT22;23741;49.446;8.754;2023-05-07T04:54:53;18.00;58.60
37910;DHT22;23741;49.446;8.754;2023-05-07T04:56:54;18.00;58.60
37910;DHT22;23741;49.446;8.754;2023-05-07T04:58:56;18.00;58.70
37910;DHT22;23741;49.446;8.754;2023-05-07T05:00:58;18.00;58.60
37910;DHT22;23741;49.446;8.754;2023-05-07T05:03:02;18.10;58.70
37910;DHT22;23741;49.446;8.754;2023-05-07T05:05:04;18.10;58.70
37910;DHT22;23741;49.446;8.754;2023-05-07T05:07:06;18.10;58.70
37910;DHT22;23741;49.446;8.754;2023-05-07T05:09:07;18.10;58.80
37910;DHT22;23741;49.446;8.754;2023-05-07T05:11:09;18.10;58.80
37910;DHT22;23741;49.446;8.754;2023-05-07T05:13:11;18.20;58.80
37910;DHT22;23741;49.446;8.754;2023-05-07T05:15:15;18.20;58.90
37910;DHT22;23741;49.446;8.754;2023-05-07T05:17:17;18.20;58.70
37910;DHT22;23741;49.446;8.754;2023-05-07T05:19:18;18.20;58.90
37910;DHT22;23741;49.446;8.754;2023-05-07T05:21:20;18.30;58.90
37910;DHT22;23741;49.446;8.754;2023-05-07T05:23:27;18.30;59.00
37910;DHT22;23741;49.446;8.754;2023-05-07T05:25:29;18.30;58.90
37910;DHT22;23741;49.446;8.754;2023-05-07T05:27:31;18.30;58.90
37910;DHT22;23741;49.446;8.754;2023-05-07T05:29:33;18.40;58.90
37910;DHT22;23741;49.446;8.754;2023-05-07T05:31:35;18.40;58.90
37910;DHT22;23741;49.446;8.754;2023-05-07T05:33:38;18.40;59.10
37910;DHT22;23741;49.446;8.754;2023-05-07T05:35:39;18.50;59.10
37910;DHT22;23741;49.446;8.754;2023-05-07T05:37:45;18.40;59.10
37910;DHT22;23741;49.446;8.754;2023-05-07T05:39:48;18.50;59.00
37910;DHT22;23741;49.446;8.754;2023-05-07T05:41:50;18.50;59.10
37910;DHT22;23741;49.446;8.754;2023-05-07T05:43:52;18.50;59.30
37910;DHT22;23741;49.446;8.754;2023-05-07T05:45:55;18.60;59.00
37910;DHT22;23741;49.446;8.754;2023-05-07T05:47:57;18.60;59.10
37910;DHT22;23741;49.446;8.754;2023-05-07T05:49:59;18.60;59.10
37910;DHT22;23741;49.446;8.754;2023-05-07T05:52:01;18.70;59.10
37910;DHT22;23741;49.446;8.754;2023-05-07T05:54:03;18.70;59.10
37910;DHT22;23741;49.446;8.754;2023-05-07T05:56:05;18.70;59.10
37910;DHT22;23741;49.446;8.754;2023-05-07T05:58:08;18.70;59.10
37910;DHT22;23741;49.446;8.754;2023-05-07T06:00:14;18.80;59.30
37910;DHT22;23741;49.446;8.754;2023-05-07T06:02:19;18.80;59.20
37910;DHT22;23741;49.446;8.754;2023-05-07T06:04:21;18.80;59.10
37910;DHT22;23741;49.446;8.754;2023-05-07T06:06:22;19.00;59.10
37910;DHT22;23741;49.446;8.754;2023-05-07T06:08:24;18.90;59.00
37910;DHT22;23741;49.446;8.754;2023-05-07T06:10:26;18.90;58.90
37910;DHT22;23741;49.446;8.754;2023-05-07T06:12:29;19.00;58.90
37910;DHT22;23741;49.446;8.754;2023-05-07T06:14:31;19.00;58.90
37910;DHT22;23741;49.446;8.754;2023-05-07T06:16:32;19.00;58.90
37910;DHT22;23741;49.446;8.754;2023-05-07T06:18:34;19.10;58.90
37910;DHT22;23741;49.446;8.754;2023-05-07T06:20:37;19.10;58.90
37910;DHT22;23741;49.446;8.754;2023-05-07T06:22:44;19.10;58.70
37910;DHT22;23741;49.446;8.754;2023-05-07T06:24:47;19.20;58.70
37910;DHT22;23741;49.446;8.754;2023-05-07T06:26:49;19.30;58.60
37910;DHT22;23741;49.446;8.754;2023-05-07T06:28:51;19.20;58.40
37910;DHT22;23741;49.446;8.754;2023-05-07T06:30:53;19.30;58.40
37910;DHT22;23741;49.446;8.754;2023-05-07T06:32:54;19.40;58.30
37910;DHT22;23741;49.446;8.754;2023-05-07T06:34:57;19.40;58.20
37910;DHT22;23741;49.446;8.754;2023-05-07T06:36:58;19.50;58.20
37910;DHT22;23741;49.446;8.754;2023-05-07T06:39:18;19.60;58.10
37910;DHT22;23741;49.446;8.754;2023-05-07T06:41:19;19.60;57.90
37910;DHT22;23741;49.446;8.754;2023-05-07T06:43:22;19.70;58.00
37910;DHT22;23741;49.446;8.754;2023-05-07T06:45:47;19.60;57.80
37910;DHT22;23741;49.446;8.754;2023-05-07T06:47:49;19.70;57.90
37910;DHT22;23741;49.446;8.754;2023-05-07T06:49:52;19.70;57.90
37910;DHT22;23741;49.446;8.754;2023-05-07T06:51:56;19.80;57.80
37910;DHT22;23741;49.446;8.754;2023-05-07T06:53:58;19.80;57.70
37910;DHT22;23741;49.446;8.754;2023-05-07T06:56:00;19.80;57.60
37910;DHT22;23741;49.446;8.754;2023-05-07T06:58:01;19.90;57.60
37910;DHT22;23741;49.446;8.754;2023-05-07T07:00:03;19.90;57.50
37910;DHT22;23741;49.446;8.754;2023-05-07T07:02:14;20.00;57.50
37910;DHT22;23741;49.446;8.754;2023-05-07T07:04:19;20.00;57.50
37910;DHT22;23741;49.446;8.754;2023-05-07T07:06:30;20.10;57.50
37910;DHT22;23741;49.446;8.754;2023-05-07T07:08:34;20.10;57.40
37910;DHT22;23741;49.446;8.754;2023-05-07T07:10:36;20.10;57.30
37910;DHT22;23741;49.446;8.754;2023-05-07T07:12:38;20.20;57.30
37910;DHT22;23741;49.446;8.754;2023-05-07T07:14:40;20.20;57.30
37910;DHT22;23741;49.446;8.754;2023-05-07T07:16:42;20.30;57.30
37910;DHT22;23741;49.446;8.754;2023-05-07T07:18:43;20.30;57.20
37910;DHT22;23741;49.446;8.754;2023-05-07T07:20:45;20.30;57.10
37910;DHT22;23741;49.446;8.754;2023-05-07T07:22:48;20.30;57.10
37910;DHT22;23741;49.446;8.754;2023-05-07T07:24:51;20.40;57.10
37910;DHT22;23741;49.446;8.754;2023-05-07T07:26:52;20.40;57.00
37910;DHT22;23741;49.446;8.754;2023-05-07T07:28:57;20.40;56.90
37910;DHT22;23741;49.446;8.754;2023-05-07T07:30:59;20.50;56.90
37910;DHT22;23741;49.446;8.754;2023-05-07T07:33:01;20.60;56.90
37910;DHT22;23741;49.446;8.754;2023-05-07T07:35:08;20.50;56.80
37910;DHT22;23741;49.446;8.754;2023-05-07T07:37:11;20.60;56.90
37910;DHT22;23741;49.446;8.754;2023-05-07T07:39:13;20.60;56.90
37910;DHT22;23741;49.446;8.754;2023-05-07T07:41:17;20.60;56.80
37910;DHT22;23741;49.446;8.754;2023-05-07T07:43:19;20.70;56.80
37910;DHT22;23741;49.446;8.754;2023-05-07T07:45:21;20.70;56.70
37910;DHT22;23741;49.446;8.754;2023-05-07T07:47:25;20.80;56.70
37910;DHT22;23741;49.446;8.754;2023-05-07T07:49:27;20.80;56.50
37910;DHT22;23741;49.446;8.754;2023-05-07T07:51:30;20.80;56.50
37910;DHT22;23741;49.446;8.754;2023-05-07T07:53:33;20.90;56.60
37910;DHT22;23741;49.446;8.754;2023-05-07T07:55:39;20.90;56.50
37910;DHT22;23741;49.446;8.754;2023-05-07T07:57:42;21.00;56.50
37910;DHT22;23741;49.446;8.754;2023-05-07T07:59:44;21.00;56.50
37910;DHT22;23741;49.446;8.754;2023-05-07T08:01:48;21.00;56.40
37910;DHT22;23741;49.446;8.754;2023-05-07T08:03:55;21.00;56.40
37910;DHT22;23741;49.446;8.754;2023-05-07T08:05:57;21.10;56.50
37910;DHT22;23741;49.446;8.754;2023-05-07T08:07:59;21.10;56.40
37910;DHT22;23741;49.446;8.754;2023-05-07T08:10:06;21.30;56.50
37910;DHT22;23741;49.446;8.754;2023-05-07T08:12:08;21.30;56.40
37910;DHT22;23741;49.446;8.754;2023-05-07T08:14:11;21.30;56.40
37910;DHT22;23741;49.446;8.754;2023-05-07T08:16:13;21.30;56.40
37910;DHT22;23741;49.446;8.754;2023-05-07T08:18:15;21.40;56.40
37910;DHT22;23741;49.446;8.754;2023-05-07T08:20:18;21.40;56.30
37910;DHT22;23741;49.446;8.754;2023-05-07T08:22:21;21.50;56.30
37910;DHT22;23741;49.446;8.754;2023-05-07T08:24:25;21.50;56.20
37910;DHT22;23741;49.446;8.754;2023-05-07T08:26:27;21.50;56.10
37910;DHT22;23741;49.446;8.754;2023-05-07T08:28:31;21.60;56.00
37910;DHT22;23741;49.446;8.754;2023-05-07T08:30:33;21.60;56.00
37910;DHT22;23741;49.446;8.754;2023-05-07T08:32:36;21.70;56.20
37910;DHT22;23741;49.446;8.754;2023-05-07T08:34:38;21.70;56.20
37910;DHT22;23741;49.446;8.754;2023-05-07T08:36:40;21.70;56.10
37910;DHT22;23741;49.446;8.754;2023-05-07T08:38:45;21.80;56.10
37910;DHT22;23741;49.446;8.754;2023-05-07T08:40:47;21.80;56.10
37910;DHT22;23741;49.446;8.754;2023-05-07T08:42:53;21.90;56.10
37910;DHT22;23741;49.446;8.754;2023-05-07T08:44:58;21.90;56.10
37910;DHT22;23741;49.446;8.754;2023-05-07T08:47:02;21.90;56.00
37910;DHT22;23741;49.446;8.754;2023-05-07T08:49:05;22.00;56.10
37910;DHT22;23741;49.446;8.754;2023-05-07T08:51:08;22.00;56.00
37910;DHT22;23741;49.446;8.754;2023-05-07T08:53:10;22.10;56.00
37910;DHT22;23741;49.446;8.754;2023-05-07T08:55:12;22.10;56.00
37910;DHT22;23741;49.446;8.754;2023-05-07T08:57:15;22.10;55.90
37910;DHT22;23741;49.446;8.754;2023-05-07T08:59:17;22.20;55.80
37910;DHT22;23741;49.446;8.754;2023-05-07T09:01:19;22.30;55.90
37910;DHT22;23741;49.446;8.754;2023-05-07T09:03:25;22.30;55.90
37910;DHT22;23741;49.446;8.754;2023-05-07T09:05:29;22.40;55.80
37910;DHT22;23741;49.446;8.754;2023-05-07T09:07:31;22.30;55.60
37910;DHT22;23741;49.446;8.754;2023-05-07T09:09:33;22.30;55.60
37910;DHT22;23741;49.446;8.754;2023-05-07T09:11:37;22.40;55.60
37910;DHT22;23741;49.446;8.754;2023-05-07T09:13:39;22.40;55.50
37910;DHT22;23741;49.446;8.754;2023-05-07T09:15:41;22.50;55.50
37910;DHT22;23741;49.446;8.754;2023-05-07T09:17:43;22.50;55.70
37910;DHT22;23741;49.446;8.754;2023-05-07T09:19:47;22.50;55.50
37910;DHT22;23741;49.446;8.754;2023-05-07T09:21:57;22.60;55.50
37910;DHT22;23741;49.446;8.754;2023-05-07T09:23:59;22.60;55.60
37910;DHT22;23741;49.446;8.754;2023-05-07T09:26:08;22.70;55.50
37910;DHT22;23741;49.446;8.754;2023-05-07T09:28:15;22.70;55.40
37910;DHT22;23741;49.446;8.754;2023-05-07T09:30:17;22.70;55.50
37910;DHT22;23741;49.446;8.754;2023-05-07T09:32:18;22.80;55.50
37910;DHT22;23741;49.446;8.754;2023-05-07T09:34:21;22.80;55.50
37910;DHT22;23741;49.446;8.754;2023-05-07T09:36:22;22.80;55.40
37910;DHT22;23741;49.446;8.754;2023-05-07T09:38:24;22.90;55.30
37910;DHT22;23741;49.446;8.754;2023-05-07T09:40:31;22.90;55.30
37910;DHT22;23741;49.446;8.754;2023-05-07T09:42:38;23.00;55.40
37910;DHT22;23741;49.446;8.754;2023-05-07T09:44:40;23.00;55.30
37910;DHT22;23741;49.446;8.754;2023-05-07T09:46:46;23.10;55.20
37910;DHT22;23741;49.446;8.754;2023-05-07T09:48:59;23.00;55.20
37910;DHT22;23741;49.446;8.754;2023-05-07T09:53:19;23.10;55.20
37910;DHT22;23741;49.446;8.754;2023-05-07T09:55:22;23.20;55.10
37910;DHT22;23741;49.446;8.754;2023-05-07T09:57:24;23.20;55.10
37910;DHT22;23741;49.446;8.754;2023-05-07T09:59:32;23.30;55.00
37910;DHT22;23741;49.446;8.754;2023-05-07T10:01:37;23.30;55.00
37910;DHT22;23741;49.446;8.754;2023-05-07T10:03:40;23.30;55.00
37910;DHT22;23741;49.446;8.754;2023-05-07T10:05:43;23.40;55.10
37910;DHT22;23741;49.446;8.754;2023-05-07T10:07:47;23.40;55.10
37910;DHT22;23741;49.446;8.754;2023-05-07T10:09:50;23.50;55.00
37910;DHT22;23741;49.446;8.754;2023-05-07T10:11:59;23.50;55.10
37910;DHT22;23741;49.446;8.754;2023-05-07T10:14:01;23.60;55.10
37910;DHT22;23741;49.446;8.754;2023-05-07T10:16:06;23.70;55.20
37910;DHT22;23741;49.446;8.754;2023-05-07T10:18:14;23.70;54.80
37910;DHT22;23741;49.446;8.754;2023-05-07T10:20:20;23.80;54.90
37910;DHT22;23741;49.446;8.754;2023-05-07T10:22:22;23.80;55.60
37910;DHT22;23741;49.446;8.754;2023-05-07T10:24:26;23.90;55.00
37910;DHT22;23741;49.446;8.754;2023-05-07T10:26:29;23.90;54.50
37910;DHT22;23741;49.446;8.754;2023-05-07T10:28:33;24.00;55.00
37910;DHT22;23741;49.446;8.754;2023-05-07T10:32:56;24.10;54.90
37910;DHT22;23741;49.446;8.754;2023-05-07T10:35:11;24.20;54.80
37910;DHT22;23741;49.446;8.754;2023-05-07T10:37:15;24.20;54.70
37910;DHT22;23741;49.446;8.754;2023-05-07T10:39:18;24.30;54.60
37910;DHT22;23741;49.446;8.754;2023-05-07T10:41:21;24.30;54.50
37910;DHT22;23741;49.446;8.754;2023-05-07T10:43:24;24.40;54.50
37910;DHT22;23741;49.446;8.754;2023-05-07T10:45:32;24.50;54.50
37910;DHT22;23741;49.446;8.754;2023-05-07T10:47:35;24.50;54.60
37910;DHT22;23741;49.446;8.754;2023-05-07T10:50:22;24.60;54.50
37910;DHT22;23741;49.446;8.754;2023-05-07T10:52:13;24.70;54.60
37910;DHT22;23741;49.446;8.754;2023-05-07T10:54:31;24.80;54.70
37910;DHT22;23741;49.446;8.754;2023-05-07T10:56:42;24.90;54.50
37910;DHT22;23741;49.446;8.754;2023-05-07T10:58:50;25.00;54.60
37910;DHT22;23741;49.446;8.754;2023-05-07T11:00:58;25.10;53.00
37910;DHT22;23741;49.446;8.754;2023-05-07T11:03:06;25.20;53.90
37910;DHT22;23741;49.446;8.754;2023-05-07T11:05:24;25.20;53.70
37910;DHT22;23741;49.446;8.754;2023-05-07T11:07:43;25.30;53.60
37910;DHT22;23741;49.446;8.754;2023-05-07T11:09:56;25.40;53.60
37910;DHT22;23741;49.446;8.754;2023-05-07T11:12:11;25.40;53.10
37910;DHT22;23741;49.446;8.754;2023-05-07T11:17:06;25.60;53.60
37910;DHT22;23741;49.446;8.754;2023-05-07T11:19:08;25.70;53.60
37910;DHT22;23741;49.446;8.754;2023-05-07T11:21:32;25.80;53.60
37910;DHT22;23741;49.446;8.754;2023-05-07T11:26:03;26.00;53.70
37910;DHT22;23741;49.446;8.754;2023-05-07T11:28:07;26.10;53.70
37910;DHT22;23741;49.446;8.754;2023-05-07T11:30:17;26.30;53.60
37910;DHT22;23741;49.446;8.754;2023-05-07T11:32:26;26.40;53.70
37910;DHT22;23741;49.446;8.754;2023-05-07T11:34:32;26.50;53.50
37910;DHT22;23741;49.446;8.754;2023-05-07T11:36:34;26.70;53.80
37910;DHT22;23741;49.446;8.754;2023-05-07T11:38:38;26.70;53.20
37910;DHT22;23741;49.446;8.754;2023-05-07T11:40:49;26.90;53.80
37910;DHT22;23741;49.446;8.754;2023-05-07T11:42:52;27.00;53.00
37910;DHT22;23741;49.446;8.754;2023-05-07T11:44:53;27.10;50.80
37910;DHT22;23741;49.446;8.754;2023-05-07T11:46:55;27.20;51.70
37910;DHT22;23741;49.446;8.754;2023-05-07T11:48:57;27.20;51.00
37910;DHT22;23741;49.446;8.754;2023-05-07T11:53:07;27.40;51.30
37910;DHT22;23741;49.446;8.754;2023-05-07T11:55:08;27.40;51.80
37910;DHT22;23741;49.446;8.754;2023-05-07T11:57:14;27.50;51.80
37910;DHT22;23741;49.446;8.754;2023-05-07T11:59:18;27.60;51.50
37910;DHT22;23741;49.446;8.754;2023-05-07T12:01:20;27.70;51.10
37910;DHT22;23741;49.446;8.754;2023-05-07T12:03:22;27.70;50.20
37910;DHT22;23741;49.446;8.754;2023-05-07T12:05:24;27.80;50.90
37910;DHT22;23741;49.446;8.754;2023-05-07T12:07:26;27.80;50.90
37910;DHT22;23741;49.446;8.754;2023-05-07T12:09:28;28.00;51.10
37910;DHT22;23741;49.446;8.754;2023-05-07T12:11:29;28.00;51.00
37910;DHT22;23741;49.446;8.754;2023-05-07T12:13:31;28.10;51.30
37910;DHT22;23741;49.446;8.754;2023-05-07T12:15:34;28.10;51.40
37910;DHT22;23741;49.446;8.754;2023-05-07T12:17:36;28.20;50.10
37910;DHT22;23741;49.446;8.754;2023-05-07T12:19:39;28.30;50.50
37910;DHT22;23741;49.446;8.754;2023-05-07T12:21:41;28.40;49.60
37910;DHT22;23741;49.446;8.754;2023-05-07T12:23:42;28.50;50.50
37910;DHT22;23741;49.446;8.754;2023-05-07T12:25:45;28.50;50.40
37910;DHT22;23741;49.446;8.754;2023-05-07T12:27:53;28.50;50.20
37910;DHT22;23741;49.446;8.754;2023-05-07T12:29:56;28.60;49.40
37910;DHT22;23741;49.446;8.754;2023-05-07T12:31:58;28.60;50.20
37910;DHT22;23741;49.446;8.754;2023-05-07T12:34:01;28.60;49.00
37910;DHT22;23741;49.446;8.754;2023-05-07T12:36:05;28.70;49.70
37910;DHT22;23741;49.446;8.754;2023-05-07T12:38:08;28.70;49.40
37910;DHT22;23741;49.446;8.754;2023-05-07T12:40:10;28.70;49.50
37910;DHT22;23741;49.446;8.754;2023-05-07T12:42:16;28.80;49.00
37910;DHT22;23741;49.446;8.754;2023-05-07T12:44:18;28.80;49.20
37910;DHT22;23741;49.446;8.754;2023-05-07T12:46:19;28.90;49.70
37910;DHT22;23741;49.446;8.754;2023-05-07T12:48:22;28.90;49.50
37910;DHT22;23741;49.446;8.754;2023-05-07T12:50:23;29.00;49.10
37910;DHT22;23741;49.446;8.754;2023-05-07T12:52:25;29.00;49.30
37910;DHT22;23741;49.446;8.754;2023-05-07T12:54:28;29.00;49.50
37910;DHT22;23741;49.446;8.754;2023-05-07T12:56:35;29.00;49.50
37910;DHT22;23741;49.446;8.754;2023-05-07T12:58:37;29.00;48.70
37910;DHT22;23741;49.446;8.754;2023-05-07T13:00:39;28.90;48.60
37910;DHT22;23741;49.446;8.754;2023-05-07T13:02:41;28.90;48.40
37910;DHT22;23741;49.446;8.754;2023-05-07T13:04:43;28.90;48.20
37910;DHT22;23741;49.446;8.754;2023-05-07T13:06:44;28.80;48.00
37910;DHT22;23741;49.446;8.754;2023-05-07T13:08:46;28.70;47.60
37910;DHT22;23741;49.446;8.754;2023-05-07T13:10:48;28.70;47.70